createdAt,value
2018-06-08T00:00:59.876Z,88.43
2018-06-08T00:02:00.058Z,88.87
2018-06-08T00:03:00.243Z,89.15
2018-06-08T00:04:00.447Z,89.20
2018-06-08T00:05:00.605Z,88.91
2018-06-08T00:06:00.795Z,89.39
2018-06-08T00:07:00.976Z,88.81
2018-06-08T00:08:01.161Z,88.91
2018-06-08T00:09:01.583Z,88.43
2018-06-08T00:10:01.530Z,88.24
2018-06-08T00:11:01.708Z,88.33
2018-06-08T00:12:01.888Z,88.14
2018-06-08T00:13:02.080Z,88.24
2018-06-08T00:14:02.254Z,88.24
2018-06-08T00:15:02.444Z,88.14
2018-06-08T00:16:02.624Z,88.14
2018-06-08T00:17:02.802Z,88.91
2018-06-08T00:18:02.991Z,88.24
2018-06-08T00:19:03.176Z,88.71
2018-06-08T00:20:03.360Z,88.24
2018-06-08T00:21:03.543Z,88.04
2018-06-08T00:22:03.728Z,88.04
2018-06-08T00:23:03.904Z,88.04
2018-06-08T00:24:04.088Z,88.14
2018-06-08T00:25:04.274Z,87.70
2018-06-08T00:26:04.479Z,87.76
2018-06-08T00:27:04.642Z,88.53
2018-06-08T00:28:04.822Z,88.14
2018-06-08T00:29:05.001Z,87.76
2018-06-08T00:30:05.188Z,87.99
2018-06-08T00:31:05.368Z,87.85
2018-06-08T00:32:05.567Z,87.80
2018-06-08T00:33:05.745Z,87.32
2018-06-08T00:34:05.923Z,87.32
2018-06-08T00:35:06.107Z,87.22
2018-06-08T00:36:06.293Z,87.51
2018-06-08T00:37:06.478Z,87.95
2018-06-08T00:38:06.664Z,88.62
2018-06-08T00:39:06.849Z,88.62
2018-06-08T00:40:07.035Z,88.33
2018-06-08T00:41:07.220Z,88.43
2018-06-08T00:42:07.403Z,87.95
2018-06-08T00:43:07.587Z,88.24
2018-06-08T00:44:07.771Z,88.04
2018-06-08T00:45:07.954Z,87.76
2018-06-08T00:46:08.138Z,88.04
2018-06-08T00:47:08.320Z,87.85
2018-06-08T00:48:08.499Z,88.33
2018-06-08T00:49:08.686Z,87.95
2018-06-08T00:51:09.046Z,88.43
2018-06-08T00:52:09.234Z,87.95
2018-06-08T00:53:09.413Z,88.53
2018-06-08T00:54:09.603Z,87.85
2018-06-08T00:55:09.782Z,88.24
2018-06-08T00:56:09.960Z,87.76
2018-06-08T00:57:10.425Z,87.66
2018-06-08T00:58:10.325Z,87.76
2018-06-08T00:59:10.518Z,87.46
2018-06-08T01:00:10.723Z,87.85
2018-06-08T01:01:10.886Z,87.56
2018-06-08T01:02:11.073Z,88.04
2018-06-08T01:03:11.252Z,88.04
2018-06-08T01:04:11.438Z,88.04
2018-06-08T01:05:11.616Z,88.14
2018-06-08T01:06:11.805Z,88.24
2018-06-08T01:07:11.987Z,88.91
2018-06-08T01:08:12.173Z,89.29
2018-06-08T01:09:12.362Z,89.01
2018-06-08T01:10:12.540Z,88.62
2018-06-08T01:11:12.719Z,89.01
2018-06-08T01:12:12.908Z,88.91
2018-06-08T01:13:13.095Z,89.10
2018-06-08T01:14:13.269Z,89.01
2018-06-08T01:15:13.462Z,89.10
2018-06-08T01:16:13.635Z,89.01
2018-06-08T01:17:13.812Z,89.29
2018-06-08T01:18:13.995Z,88.87
2018-06-08T01:19:14.185Z,89.58
2018-06-08T01:20:14.369Z,89.10
2018-06-08T01:21:14.805Z,89.06
2018-06-08T01:22:14.734Z,88.62
2018-06-08T01:23:14.940Z,89.06
2018-06-08T01:24:15.109Z,88.77
2018-06-08T01:25:15.286Z,89.15
2018-06-08T01:26:15.472Z,88.81
2018-06-08T01:27:15.655Z,88.77
2018-06-08T01:28:15.835Z,88.91
2018-06-08T01:29:16.018Z,88.91
2018-06-08T01:30:16.203Z,88.77
2018-06-08T01:31:16.385Z,89.44
2018-06-08T01:32:16.580Z,88.62
2018-06-08T01:33:16.756Z,88.77
2018-06-08T01:34:16.943Z,89.06
2018-06-08T01:35:17.131Z,88.87
2018-06-08T01:36:17.313Z,89.01
2018-06-08T01:37:17.499Z,89.25
2018-06-08T01:38:17.678Z,89.44
2018-06-08T01:39:17.867Z,89.64
2018-06-08T01:40:18.041Z,89.92
2018-06-08T01:41:18.227Z,90.31
2018-06-08T01:42:18.419Z,90.89
2018-06-08T01:43:18.592Z,90.79
2018-06-08T01:44:18.773Z,90.79
2018-06-08T01:45:18.968Z,90.59
2018-06-08T01:46:19.142Z,90.89
2018-06-08T01:47:19.338Z,90.31
2018-06-08T01:48:19.517Z,89.83
2018-06-08T01:49:19.704Z,90.41
2018-06-08T01:50:19.888Z,89.73
2018-06-08T01:51:20.079Z,90.41
2018-06-08T01:52:20.263Z,90.50
2018-06-08T01:53:20.442Z,90.21
2018-06-08T01:54:20.632Z,90.50
2018-06-08T01:56:20.995Z,90.98
2018-06-08T01:57:21.184Z,91.08
2018-06-08T01:58:21.354Z,90.98
2018-06-08T01:59:21.539Z,91.08
2018-06-08T02:00:21.718Z,90.31
2018-06-08T02:01:21.906Z,90.41
2018-06-08T02:02:22.092Z,90.31
2018-06-08T02:03:22.279Z,89.83
2018-06-08T02:04:22.464Z,90.02
2018-06-08T02:05:22.636Z,89.92
2018-06-08T02:06:22.821Z,89.54
2018-06-08T02:07:23.000Z,90.02
2018-06-08T02:08:23.166Z,89.44
2018-06-08T02:09:23.661Z,89.54
2018-06-08T02:10:23.546Z,89.73
2018-06-08T02:11:23.732Z,89.54
2018-06-08T02:12:23.904Z,89.83
2018-06-08T02:13:24.091Z,89.44
2018-06-08T02:14:24.265Z,89.92
2018-06-08T02:15:24.463Z,89.44
2018-06-08T02:16:24.636Z,90.21
2018-06-08T02:17:24.827Z,90.02
2018-06-08T02:18:25.005Z,90.12
2018-06-08T02:19:25.179Z,90.84
2018-06-08T02:20:25.363Z,90.98
2018-06-08T02:21:25.557Z,90.79
2018-06-08T02:22:25.729Z,90.94
2018-06-08T02:23:25.919Z,91.27
2018-06-08T02:24:26.097Z,91.52
2018-06-08T02:25:26.283Z,91.36
2018-06-08T02:26:26.732Z,91.52
2018-06-08T02:27:26.646Z,92.19
2018-06-08T02:28:26.840Z,91.80
2018-06-08T02:29:27.011Z,92.09
2018-06-08T02:30:27.208Z,92.09
2018-06-08T02:31:27.383Z,91.75
2018-06-08T02:32:27.561Z,91.36
2018-06-08T02:33:27.752Z,91.90
2018-06-08T02:34:27.945Z,92.04
2018-06-08T02:35:28.114Z,91.08
2018-06-08T02:36:28.301Z,91.32
2018-06-08T02:37:28.479Z,90.50
2018-06-08T02:38:28.679Z,91.17
2018-06-08T02:39:28.833Z,90.31
2018-06-08T02:40:29.025Z,90.50
2018-06-08T02:41:29.206Z,90.69
2018-06-08T02:42:29.396Z,90.31
2018-06-08T02:43:29.576Z,90.12
2018-06-08T02:44:29.755Z,90.21
2018-06-08T02:45:29.945Z,90.50
2018-06-08T02:46:30.117Z,90.69
2018-06-08T02:47:30.303Z,91.17
2018-06-08T02:48:30.489Z,92.09
2018-06-08T02:49:30.686Z,92.86
2018-06-08T02:50:30.866Z,92.67
2018-06-08T02:51:31.049Z,92.76
2018-06-08T02:52:31.229Z,92.86
2018-06-08T02:53:31.415Z,92.04
2018-06-08T02:54:31.591Z,91.85
2018-06-08T02:55:31.775Z,91.94
2018-06-08T02:56:31.959Z,91.46
2018-06-08T02:57:33.847Z,91.27
2018-06-08T02:58:32.280Z,90.89
2018-06-08T02:59:32.466Z,91.46
2018-06-08T03:00:32.653Z,91.13
2018-06-08T03:01:32.843Z,91.32
2018-06-08T03:02:33.014Z,91.52
2018-06-08T03:03:33.202Z,91.94
2018-06-08T03:04:33.380Z,91.94
2018-06-08T03:05:33.568Z,91.08
2018-06-08T03:06:33.751Z,90.65
2018-06-08T03:07:33.939Z,91.27
2018-06-08T03:08:34.116Z,90.41
2018-06-08T03:09:34.304Z,90.59
2018-06-08T03:10:34.487Z,91.27
2018-06-08T03:11:34.671Z,91.13
2018-06-08T03:12:34.855Z,91.61
2018-06-08T03:13:35.039Z,92.09
2018-06-08T03:14:35.211Z,92.47
2018-06-08T03:15:35.399Z,92.47
2018-06-08T03:16:35.582Z,92.04
2018-06-08T03:17:35.769Z,91.71
2018-06-08T03:18:35.954Z,91.85
2018-06-08T03:19:36.142Z,91.56
2018-06-08T03:20:36.322Z,91.80
2018-06-08T03:21:36.510Z,91.32
2018-06-08T03:22:36.698Z,91.85
2018-06-08T03:23:36.870Z,91.27
2018-06-08T03:24:37.080Z,91.27
2018-06-08T03:25:37.240Z,91.08
2018-06-08T03:26:37.425Z,91.52
2018-06-08T03:27:37.613Z,91.80
2018-06-08T03:28:37.793Z,92.09
2018-06-08T03:29:37.986Z,92.29
2018-06-08T03:30:38.170Z,91.56
2018-06-08T03:31:38.361Z,91.85
2018-06-08T03:32:38.542Z,91.36
2018-06-08T03:33:38.726Z,91.08
2018-06-08T03:34:38.945Z,91.08
2018-06-08T03:35:39.089Z,90.98
2018-06-08T03:36:39.277Z,90.50
2018-06-08T03:37:39.460Z,90.59
2018-06-08T03:38:39.640Z,90.79
2018-06-08T03:39:39.820Z,90.12
2018-06-08T03:40:40.004Z,90.59
2018-06-08T03:41:40.185Z,90.31
2018-06-08T03:42:40.380Z,90.12
2018-06-08T03:43:40.566Z,90.31
2018-06-08T03:44:40.748Z,90.21
2018-06-08T03:45:40.926Z,90.12
2018-06-08T03:46:41.110Z,90.12
2018-06-08T03:47:41.292Z,90.50
2018-06-08T03:48:41.477Z,90.31
2018-06-08T03:49:41.660Z,90.89
2018-06-08T03:50:41.846Z,91.94
2018-06-08T03:51:42.034Z,91.66
2018-06-08T03:52:42.227Z,91.56
2018-06-08T03:53:42.394Z,91.08
2018-06-08T03:54:42.587Z,90.89
2018-06-08T03:55:42.768Z,90.89
2018-06-08T03:56:42.944Z,90.69
2018-06-08T03:57:43.128Z,90.89
2018-06-08T03:58:43.312Z,91.27
2018-06-08T03:59:43.505Z,92.19
2018-06-08T04:00:43.684Z,92.57
2018-06-08T04:01:43.874Z,92.47
2018-06-08T04:02:44.050Z,92.96
2018-06-08T04:03:44.259Z,92.67
2018-06-08T04:04:44.413Z,92.67
2018-06-08T04:05:44.606Z,92.67
2018-06-08T04:06:44.778Z,92.76
2018-06-08T04:07:44.974Z,93.63
2018-06-08T04:08:45.166Z,93.24
2018-06-08T04:09:45.345Z,92.96
2018-06-08T04:10:45.525Z,93.05
2018-06-08T04:11:45.710Z,93.63
2018-06-08T04:12:45.900Z,93.53
2018-06-08T04:13:46.091Z,92.86
2018-06-08T04:14:46.264Z,92.86
2018-06-08T04:15:46.457Z,92.96
2018-06-08T04:16:46.626Z,92.96
2018-06-08T04:17:46.810Z,92.47
2018-06-08T04:18:46.992Z,91.94
2018-06-08T04:19:47.421Z,91.94
2018-06-08T04:20:47.356Z,91.27
2018-06-08T04:21:47.541Z,90.50
2018-06-08T04:22:47.721Z,90.89
2018-06-08T04:23:47.910Z,90.79
2018-06-08T04:24:48.097Z,90.59
2018-06-08T04:25:48.348Z,90.12
2018-06-08T04:26:48.457Z,89.92
2018-06-08T04:27:48.641Z,90.31
2018-06-08T04:28:48.823Z,90.12
2018-06-08T04:29:49.024Z,89.54
2018-06-08T04:30:49.189Z,89.83
2018-06-08T04:31:49.364Z,89.64
2018-06-08T04:32:49.603Z,89.92
2018-06-08T04:33:49.726Z,89.83
2018-06-08T04:34:49.909Z,90.21
2018-06-08T04:35:50.096Z,89.64
2018-06-08T04:36:50.295Z,89.73
2018-06-08T04:37:50.472Z,90.31
2018-06-08T04:38:50.651Z,89.64
2018-06-08T04:39:50.831Z,89.83
2018-06-08T04:40:51.018Z,90.59
2018-06-08T04:41:51.200Z,89.87
2018-06-08T04:42:51.378Z,90.16
2018-06-08T04:43:51.565Z,90.02
2018-06-08T04:44:51.747Z,89.92
2018-06-08T04:45:51.927Z,89.73
2018-06-08T04:46:52.115Z,89.68
2018-06-08T04:47:52.297Z,89.73
2018-06-08T04:48:52.499Z,90.12
2018-06-08T04:49:52.681Z,89.73
2018-06-08T04:50:52.866Z,89.97
2018-06-08T04:51:53.049Z,90.12
2018-06-08T04:52:53.235Z,89.68
2018-06-08T04:53:53.416Z,89.83
2018-06-08T04:54:53.598Z,90.02
2018-06-08T04:55:53.784Z,90.31
2018-06-08T04:56:53.980Z,90.31
2018-06-08T04:57:54.175Z,90.41
2018-06-08T04:58:54.345Z,90.79
2018-06-08T04:59:54.527Z,91.41
2018-06-08T05:00:54.716Z,91.36
2018-06-08T05:01:54.914Z,90.50
2018-06-08T05:02:55.086Z,90.98
2018-06-08T05:03:55.270Z,90.79
2018-06-08T05:04:55.460Z,91.17
2018-06-08T05:05:55.653Z,91.27
2018-06-08T05:06:55.831Z,91.75
2018-06-08T05:07:56.014Z,92.04
2018-06-08T05:08:56.195Z,91.94
2018-06-08T05:09:56.379Z,92.04
2018-06-08T05:10:56.572Z,92.13
2018-06-08T05:11:56.743Z,92.33
2018-06-08T05:12:56.926Z,92.13
2018-06-08T05:13:57.103Z,92.04
2018-06-08T05:14:57.572Z,91.56
2018-06-08T05:15:57.477Z,91.46
2018-06-08T05:16:57.676Z,91.56
2018-06-08T05:17:57.841Z,91.08
2018-06-08T05:18:58.027Z,91.94
2018-06-08T05:19:58.216Z,91.36
2018-06-08T05:20:58.398Z,91.94
2018-06-08T05:21:58.875Z,90.79
2018-06-08T05:22:58.772Z,90.93
2018-06-08T05:23:58.966Z,91.22
2018-06-08T05:24:59.139Z,90.16
2018-06-08T05:25:59.330Z,90.26
2018-06-08T05:26:59.509Z,89.97
2018-06-08T05:27:59.688Z,89.68
2018-06-08T05:28:59.873Z,88.91
2018-06-08T05:30:00.062Z,89.01
2018-06-08T05:31:00.240Z,88.95
2018-06-08T05:32:00.434Z,89.15
2018-06-08T05:33:00.603Z,88.95
2018-06-08T05:34:00.788Z,88.95
2018-06-08T05:35:00.975Z,88.47
2018-06-08T05:36:01.156Z,88.85
2018-06-08T05:37:01.338Z,88.85
2018-06-08T05:38:01.527Z,89.05
2018-06-08T05:39:01.713Z,88.47
2018-06-08T05:40:01.894Z,88.18
2018-06-08T05:41:02.090Z,88.09
2018-06-08T05:42:02.258Z,87.65
2018-06-08T05:43:02.446Z,87.22
2018-06-08T05:44:02.629Z,87.36
2018-06-08T05:45:02.808Z,87.46
2018-06-08T05:46:02.988Z,86.69
2018-06-08T05:47:03.178Z,87.51
2018-06-08T05:48:03.370Z,87.70
2018-06-08T05:49:03.551Z,87.17
2018-06-08T05:50:03.739Z,86.59
2018-06-08T05:51:03.919Z,87.07
2018-06-08T05:52:04.116Z,86.69
2018-06-08T05:53:04.294Z,86.88
2018-06-08T05:54:04.474Z,87.07
2018-06-08T05:55:04.662Z,87.17
2018-06-08T05:57:05.032Z,86.11
2018-06-08T05:58:05.212Z,85.38
2018-06-08T05:59:05.395Z,85.67
2018-06-08T06:00:05.592Z,84.99
2018-06-08T06:01:05.798Z,84.99
2018-06-08T06:02:05.956Z,84.61
2018-06-08T06:03:06.140Z,84.42
2018-06-08T06:04:06.317Z,84.42
2018-06-08T06:05:06.496Z,84.42
2018-06-08T06:07:06.859Z,84.22
2018-06-08T06:08:07.089Z,84.32
2018-06-08T06:09:07.231Z,83.64
2018-06-08T06:10:07.414Z,83.45
2018-06-08T06:11:07.594Z,83.64
2018-06-08T06:12:07.798Z,84.42
2018-06-08T06:13:07.964Z,84.12
2018-06-08T06:14:08.153Z,83.55
2018-06-08T06:15:08.331Z,83.45
2018-06-08T06:16:08.511Z,83.78
2018-06-08T06:17:08.698Z,83.01
2018-06-08T06:18:08.887Z,83.01
2018-06-08T06:19:09.067Z,83.01
2018-06-08T06:20:09.265Z,82.97
2018-06-08T06:21:09.440Z,82.97
2018-06-08T06:22:09.621Z,82.49
2018-06-08T06:23:09.802Z,83.11
2018-06-08T06:24:09.988Z,83.07
2018-06-08T06:25:10.175Z,83.11
2018-06-08T06:26:10.360Z,82.43
2018-06-08T06:27:10.634Z,82.62
2018-06-08T06:28:10.731Z,82.24
2018-06-08T06:29:10.913Z,82.82
2018-06-08T06:30:11.096Z,82.62
2018-06-08T06:31:11.282Z,82.14
2018-06-08T06:32:11.467Z,82.62
2018-06-08T06:33:11.654Z,81.51
2018-06-08T06:34:11.833Z,81.60
2018-06-08T06:35:12.019Z,81.60
2018-06-08T06:36:12.201Z,81.51
2018-06-08T06:37:12.389Z,80.39
2018-06-08T06:38:12.583Z,80.39
2018-06-08T06:39:12.765Z,79.52
2018-06-08T06:40:12.951Z,78.17
2018-06-08T06:41:13.135Z,78.36
2018-06-08T06:42:13.322Z,78.21
2018-06-08T06:43:13.502Z,77.44
2018-06-08T06:44:13.693Z,77.05
2018-06-08T06:45:13.875Z,77.48
2018-06-08T06:46:14.054Z,76.80
2018-06-08T06:47:14.242Z,77.53
2018-06-08T06:48:14.426Z,77.19
2018-06-08T06:49:14.616Z,77.34
2018-06-08T06:50:14.800Z,77.05
2018-06-08T06:51:15.005Z,77.53
2018-06-08T06:52:15.170Z,77.48
2018-06-08T06:53:15.422Z,77.19
2018-06-08T06:54:15.547Z,77.09
2018-06-08T06:55:15.730Z,76.32
2018-06-08T06:56:15.905Z,76.42
2018-06-08T06:57:16.090Z,76.35
2018-06-08T06:58:16.306Z,75.81
2018-06-08T06:59:16.472Z,74.55
2018-06-08T07:00:16.673Z,74.46
2018-06-08T07:01:16.857Z,75.20
2018-06-08T07:02:17.038Z,75.48
2018-06-08T07:03:17.229Z,75.78
2018-06-08T07:04:17.403Z,75.48
2018-06-08T07:05:17.585Z,75.20
2018-06-08T07:06:17.774Z,74.94
2018-06-08T07:07:17.961Z,75.33
2018-06-08T07:08:18.133Z,75.33
2018-06-08T07:09:18.322Z,75.00
2018-06-08T07:10:18.514Z,75.20
2018-06-08T07:11:18.706Z,75.39
2018-06-08T07:12:18.869Z,75.78
2018-06-08T07:13:19.062Z,75.58
2018-06-08T07:14:19.249Z,75.00
2018-06-08T07:15:19.431Z,75.39
2018-06-08T07:16:19.612Z,74.71
2018-06-08T07:17:19.801Z,74.81
2018-06-08T07:18:19.991Z,74.36
2018-06-08T07:19:20.170Z,74.27
2018-06-08T07:20:20.355Z,73.97
2018-06-08T07:21:20.543Z,73.78
2018-06-08T07:22:20.748Z,73.39
2018-06-08T07:23:20.915Z,74.04
2018-06-08T07:24:21.099Z,74.32
2018-06-08T07:25:21.288Z,74.75
2018-06-08T07:26:21.480Z,74.36
2018-06-08T07:27:21.667Z,74.36
2018-06-08T07:28:21.856Z,73.88
2018-06-08T07:29:22.045Z,73.78
2018-06-08T07:30:22.233Z,73.91
2018-06-08T07:31:22.417Z,73.14
2018-06-08T07:32:22.605Z,72.56
2018-06-08T07:33:22.789Z,72.56
2018-06-08T07:34:22.974Z,72.27
2018-06-08T07:35:23.159Z,72.75
2018-06-08T07:36:23.349Z,72.36
2018-06-08T07:37:23.538Z,72.17
2018-06-08T07:38:23.716Z,72.02
2018-06-08T07:39:23.906Z,71.72
2018-06-08T07:40:24.099Z,71.82
2018-06-08T07:41:24.275Z,71.92
2018-06-08T07:42:24.462Z,72.60
2018-06-08T07:43:24.654Z,72.50
2018-06-08T07:44:24.830Z,72.30
2018-06-08T07:45:25.020Z,72.69
2018-06-08T07:46:25.207Z,72.21
2018-06-08T07:47:25.394Z,72.79
2018-06-08T07:48:25.581Z,72.69
2018-06-08T07:49:25.770Z,72.79
2018-06-08T07:50:25.984Z,72.02
2018-06-08T07:51:26.140Z,71.82
2018-06-08T07:52:26.333Z,71.56
2018-06-08T07:53:26.518Z,70.98
2018-06-08T07:54:26.693Z,70.40
2018-06-08T07:55:26.886Z,69.95
2018-06-08T07:56:27.067Z,69.27
2018-06-08T07:57:27.257Z,68.99
2018-06-08T07:58:27.442Z,68.89
2018-06-08T07:59:27.634Z,68.40
2018-06-08T08:00:27.829Z,68.05
2018-06-08T08:01:28.006Z,68.73
2018-06-08T08:02:28.192Z,68.44
2018-06-08T08:03:28.385Z,68.15
2018-06-08T08:04:28.572Z,68.12
2018-06-08T08:05:28.757Z,68.60
2018-06-08T08:47:21.547Z,63.36
2018-06-08T08:48:21.733Z,63.62
2018-06-08T08:49:21.916Z,64.46
2018-06-08T08:50:22.110Z,64.95
2018-06-08T08:51:22.289Z,64.85
2018-06-08T08:52:22.478Z,63.81
2018-06-08T08:53:22.687Z,63.26
2018-06-08T08:54:22.876Z,62.87
2018-06-08T08:55:24.058Z,61.83
2018-06-08T08:56:23.251Z,61.67
2018-06-08T08:57:23.428Z,60.99
2018-06-08T08:58:23.631Z,60.50
2018-06-08T08:59:23.808Z,60.50
2018-06-08T09:00:23.992Z,60.34
2018-06-08T09:01:24.178Z,59.39
2018-06-08T09:02:24.368Z,59.39
2018-06-08T09:03:24.553Z,59.49
2018-06-08T09:04:24.741Z,60.31
2018-06-08T09:05:24.931Z,59.89
2018-06-08T09:06:25.127Z,60.02
2018-06-08T09:07:25.315Z,59.21
2018-06-08T09:08:25.505Z,60.28
2018-06-08T09:09:25.688Z,60.50
2018-06-08T09:10:25.879Z,59.95
2018-06-08T09:11:26.128Z,60.38
2018-06-08T09:12:26.270Z,60.96
2018-06-08T09:13:26.462Z,61.64
2018-06-08T09:14:26.655Z,60.41
2018-06-08T09:15:26.875Z,60.31
2018-06-08T09:16:27.030Z,60.21
2018-06-08T09:17:27.225Z,60.28
2018-06-08T09:18:27.418Z,60.02
2018-06-08T09:19:27.851Z,59.27
2018-06-08T09:20:27.781Z,58.97
2018-06-08T09:21:27.977Z,58.32
2018-06-08T09:22:28.177Z,57.67
2018-06-08T09:23:28.348Z,57.21
2018-06-08T09:24:28.546Z,56.33
2018-06-08T09:25:28.729Z,57.59
2018-06-08T09:26:28.919Z,58.78
2018-06-08T09:27:29.103Z,58.51
2018-06-08T09:28:29.291Z,57.15
2018-06-08T09:29:29.486Z,55.60
2018-06-08T09:30:29.676Z,56.60
2018-06-08T09:31:29.853Z,56.86
2018-06-08T09:32:30.044Z,57.90
2018-06-08T09:33:30.226Z,57.74
2018-06-08T09:34:30.409Z,57.54
2018-06-08T09:35:30.607Z,57.93
2018-06-08T09:36:30.898Z,57.15
2018-06-08T09:37:30.955Z,56.70
2018-06-08T09:38:31.161Z,56.89
2018-06-08T09:39:31.354Z,56.30
2018-06-08T09:40:31.533Z,56.57
2018-06-08T09:41:31.728Z,56.57
2018-06-08T09:42:31.910Z,57.15
2018-06-08T09:43:32.104Z,56.99
2018-06-08T09:44:32.297Z,56.79
2018-06-08T09:45:32.476Z,54.77
2018-06-08T09:46:32.667Z,54.77
2018-06-08T09:47:32.857Z,54.97
2018-06-08T09:48:33.053Z,55.72
2018-06-08T09:49:33.236Z,55.72
2018-06-08T09:50:33.420Z,56.21
2018-06-08T09:51:33.610Z,56.04
2018-06-08T09:52:33.807Z,54.99
2018-06-08T09:53:33.978Z,53.85
2018-06-08T09:54:34.179Z,53.27
2018-06-08T09:55:34.359Z,53.36
2018-06-08T09:56:34.543Z,53.36
2018-06-08T09:57:34.750Z,53.44
2018-06-08T09:58:34.936Z,54.06
2018-06-08T09:59:35.139Z,56.05
2018-06-08T10:00:35.316Z,57.42
2018-06-08T10:01:35.510Z,56.76
2018-06-08T10:02:35.705Z,56.37
2018-06-08T10:03:35.895Z,55.52
2018-06-08T10:04:36.086Z,55.16
2018-06-08T10:05:36.274Z,54.31
2018-06-08T10:06:36.465Z,53.27
2018-06-08T10:07:36.656Z,52.90
2018-06-08T10:08:36.858Z,53.03
2018-06-08T10:09:37.044Z,51.29
2018-06-08T10:10:37.240Z,50.71
2018-06-08T10:11:37.432Z,51.20
2018-06-08T10:12:37.626Z,50.61
2018-06-08T10:13:37.833Z,50.54
2018-06-08T10:14:38.005Z,49.46
2018-06-08T10:15:38.185Z,49.26
2018-06-08T10:16:38.391Z,49.16
2018-06-08T10:17:38.565Z,48.87
2018-06-08T10:18:38.766Z,48.77
2018-06-08T10:19:38.947Z,49.46
2018-06-08T10:20:39.132Z,49.65
2018-06-08T10:21:39.330Z,50.10
2018-06-08T10:22:39.517Z,50.56
2018-06-08T10:23:39.699Z,50.59
2018-06-08T10:24:39.905Z,50.49
2018-06-08T10:25:40.081Z,50.92
2018-06-08T10:26:40.282Z,52.85
2018-06-08T10:27:40.470Z,52.75
2018-06-08T10:29:40.846Z,52.87
2018-06-08T10:30:41.040Z,51.70
2018-06-08T10:31:41.230Z,51.24
2018-06-08T10:32:41.422Z,51.80
2018-06-08T10:33:41.604Z,52.19
2018-06-08T10:34:41.795Z,51.92
2018-06-08T10:35:41.994Z,52.19
2018-06-08T10:36:42.188Z,51.61
2018-06-08T10:37:42.377Z,51.82
2018-06-08T10:38:42.566Z,51.53
2018-06-08T10:39:42.755Z,50.85
2018-06-08T10:40:42.935Z,51.17
2018-06-08T10:41:43.130Z,50.49
2018-06-08T10:42:43.316Z,51.12
2018-06-08T10:43:43.495Z,53.38
2018-06-08T10:44:43.692Z,54.91
2018-06-08T10:45:43.882Z,54.94
2018-06-08T10:46:44.123Z,54.28
2018-06-08T10:47:44.268Z,54.02
2018-06-08T10:48:44.448Z,52.46
2018-06-08T10:49:44.648Z,52.00
2018-06-08T10:50:44.845Z,51.41
2018-06-08T10:51:45.031Z,51.53
2018-06-08T10:52:45.235Z,51.63
2018-06-08T10:53:45.397Z,50.29
2018-06-08T10:54:45.587Z,49.61
2018-06-08T10:55:45.795Z,49.92
2018-06-08T10:56:45.979Z,50.71
2018-06-08T10:57:46.163Z,50.90
2018-06-08T10:58:46.353Z,49.24
2018-06-08T10:59:46.541Z,48.55
2018-06-08T11:00:46.980Z,48.55
2018-06-08T11:01:46.944Z,48.48
2018-06-08T11:02:47.128Z,48.09
2018-06-08T11:03:47.322Z,47.70
2018-06-08T11:04:47.475Z,46.89
2018-06-08T11:05:47.664Z,45.92
2018-06-08T11:06:47.860Z,47.09
2018-06-08T11:07:48.051Z,47.09
2018-06-08T11:08:48.240Z,47.09
2018-06-08T11:09:48.438Z,46.89
2018-06-08T11:10:48.615Z,46.21
2018-06-08T11:11:48.804Z,47.48
2018-06-08T11:12:48.992Z,48.73
2018-06-08T11:13:49.185Z,49.39
2018-06-08T11:14:49.382Z,49.80
2018-06-08T11:15:49.563Z,49.80
2018-06-08T11:16:49.751Z,49.80
2018-06-08T11:17:49.940Z,49.22
2018-06-08T11:18:50.129Z,48.48
2018-06-08T11:19:50.343Z,47.31
2018-06-08T11:20:50.532Z,47.41
2018-06-08T11:21:50.947Z,47.89
2018-06-08T11:22:50.894Z,48.36
2018-06-08T11:23:51.090Z,49.12
2018-06-08T11:24:51.293Z,49.24
2018-06-08T11:25:51.470Z,48.46
2018-06-08T11:26:51.696Z,47.48
2018-06-08T11:27:51.853Z,47.67
2018-06-08T11:28:52.050Z,47.38
2018-06-08T11:29:52.465Z,47.67
2018-06-08T11:30:52.422Z,48.26
2018-06-08T11:31:52.618Z,47.41
2018-06-08T11:32:52.813Z,47.60
2018-06-08T11:33:52.962Z,47.19
2018-06-08T11:34:53.157Z,47.87
2018-06-08T11:35:53.351Z,48.34
2018-06-08T11:36:53.540Z,48.34
2018-06-08T11:37:53.727Z,48.80
2018-06-08T11:38:53.922Z,48.80
2018-06-08T11:39:54.112Z,49.78
2018-06-08T11:40:54.315Z,49.95
2018-06-08T11:41:54.497Z,50.04
2018-06-08T11:43:54.875Z,50.07
2018-06-08T11:44:55.108Z,49.88
2018-06-08T11:45:55.285Z,49.29
2018-06-08T11:46:55.447Z,48.71
2018-06-08T11:47:55.642Z,49.17
2018-06-08T11:48:55.834Z,49.95
2018-06-08T11:49:56.026Z,50.24
2018-06-08T11:50:56.212Z,50.04
2018-06-08T11:51:56.409Z,49.58
2018-06-08T11:52:56.579Z,48.90
2018-06-08T11:53:56.769Z,48.71
2018-06-08T11:54:56.966Z,49.12
2018-06-08T11:55:57.147Z,49.22
2018-06-08T11:56:57.344Z,48.36
2018-06-08T11:57:57.530Z,47.75
2018-06-08T11:58:57.712Z,47.77
2018-06-08T11:59:57.913Z,47.67
2018-06-08T12:00:58.095Z,47.38
2018-06-08T12:01:58.285Z,47.28
2018-06-08T12:02:58.479Z,47.28
2018-06-08T12:03:58.666Z,46.92
2018-06-08T12:04:58.851Z,48.36
2018-06-08T12:05:59.048Z,50.16
2018-06-08T12:06:59.234Z,50.78
2018-06-08T12:07:59.430Z,50.87
2018-06-08T12:08:59.626Z,50.38
2018-06-08T12:09:59.803Z,50.31
2018-06-08T12:11:00.008Z,50.12
2018-06-08T12:12:00.183Z,49.85
2018-06-08T12:13:00.376Z,49.93
2018-06-08T12:14:00.572Z,50.12
2018-06-08T12:15:00.750Z,51.24
2018-06-08T12:16:00.947Z,50.78
2018-06-08T12:17:01.153Z,50.51
2018-06-08T12:18:01.318Z,50.02
2018-06-08T12:19:01.505Z,49.95
2018-06-08T12:20:01.691Z,49.07
2018-06-08T12:21:01.881Z,48.71
2018-06-08T12:22:02.067Z,48.22
2018-06-08T12:23:02.259Z,47.34
2018-06-08T12:24:02.447Z,47.53
2018-06-08T12:25:02.641Z,47.53
2018-06-08T12:26:02.824Z,48.75
2018-06-08T12:27:03.011Z,49.32
2018-06-08T12:28:03.202Z,49.34
2018-06-08T12:29:03.389Z,49.34
2018-06-08T12:30:03.572Z,48.97
2018-06-08T12:31:03.767Z,48.58
2018-06-08T12:32:03.958Z,48.36
2018-06-08T12:33:04.147Z,48.78
2018-06-08T12:34:04.332Z,48.78
2018-06-08T12:35:04.523Z,48.32
2018-06-08T12:36:04.713Z,47.53
2018-06-08T12:37:04.900Z,47.61
2018-06-08T12:38:05.088Z,48.36
2018-06-08T12:39:05.276Z,48.49
2018-06-08T12:40:05.459Z,48.00
2018-06-08T12:41:05.661Z,48.17
2018-06-08T12:42:05.855Z,48.49
2018-06-08T12:43:06.040Z,47.31
2018-06-08T12:44:06.227Z,47.51
2018-06-08T12:45:06.410Z,47.80
2018-06-08T12:47:06.800Z,47.41
2018-06-08T12:48:06.978Z,48.66
2018-06-08T12:49:07.186Z,49.32
2018-06-08T12:50:07.354Z,48.95
2018-06-08T12:51:07.540Z,49.05
2018-06-08T12:52:07.732Z,48.19
2018-06-08T12:53:07.916Z,48.29
2018-06-08T12:54:08.104Z,48.44
2018-06-08T12:55:08.294Z,48.56
2018-06-08T12:56:08.488Z,48.19
2018-06-08T12:57:08.671Z,47.05
2018-06-08T12:58:08.863Z,47.24
2018-06-08T12:59:09.051Z,47.24
2018-06-08T13:00:09.237Z,47.49
2018-06-08T13:01:09.422Z,47.95
2018-06-08T13:02:09.610Z,48.24
2018-06-08T13:03:09.823Z,48.17
2018-06-08T13:04:09.988Z,47.49
2018-06-08T13:05:10.184Z,48.17
2018-06-08T13:06:10.376Z,48.39
2018-06-08T13:07:10.577Z,47.41
2018-06-08T13:08:10.746Z,47.22
2018-06-08T13:09:11.066Z,47.41
2018-06-08T13:10:11.240Z,47.02
2018-06-08T13:11:11.713Z,46.83
2018-06-08T13:12:11.707Z,47.31
2018-06-08T13:13:11.790Z,47.51
2018-06-08T13:14:11.999Z,47.44
2018-06-08T13:15:12.197Z,47.14
2018-06-08T13:16:12.470Z,47.05
2018-06-08T13:17:12.563Z,45.78
2018-06-08T13:18:13.039Z,46.07
2018-06-08T13:19:12.939Z,46.17
2018-06-08T13:20:13.134Z,45.75
2018-06-08T13:21:13.354Z,46.22
2018-06-08T13:22:13.515Z,45.64
2018-06-08T13:23:13.706Z,47.07
2018-06-08T13:24:13.898Z,47.27
2018-06-08T13:25:14.097Z,47.17
2018-06-08T13:26:14.265Z,46.86
2018-06-08T13:27:14.461Z,47.05
2018-06-08T13:28:14.651Z,48.22
2018-06-08T13:29:14.921Z,47.85
2018-06-08T13:30:15.095Z,48.44
2018-06-08T13:31:15.292Z,48.27
2018-06-08T13:32:15.516Z,47.68
2018-06-08T13:33:15.722Z,47.00
2018-06-08T13:34:15.846Z,47.02
2018-06-08T13:35:16.062Z,46.73
2018-06-08T13:36:16.518Z,47.00
2018-06-08T13:37:16.490Z,46.83
2018-06-08T13:38:16.639Z,47.31
2018-06-08T13:39:16.854Z,46.80
2018-06-08T13:40:17.002Z,47.68
2018-06-08T13:41:17.190Z,47.27
2018-06-08T13:42:17.373Z,46.78
2018-06-08T13:43:17.575Z,47.32